createdAt,value
2018-10-16T00:02:06.793Z,14.43
2018-10-16T00:07:09.221Z,14.40
2018-10-16T00:12:11.610Z,14.35
2018-10-16T00:17:13.924Z,14.20
2018-10-16T00:22:16.268Z,14.12
2018-10-16T00:27:18.580Z,14.04
2018-10-16T00:32:20.889Z,14.04
2018-10-16T00:37:23.299Z,13.91
2018-10-16T00:42:25.669Z,13.80
2018-10-16T00:47:28.015Z,13.76
2018-10-16T00:52:30.332Z,13.69
2018-10-16T00:57:32.640Z,13.60
2018-10-16T01:02:35.043Z,13.39
2018-10-16T01:07:37.524Z,13.32
2018-10-16T01:12:40.524Z,13.37
2018-10-16T01:17:42.911Z,13.41
2018-10-16T01:22:45.249Z,13.40
2018-10-16T01:27:47.557Z,13.39
2018-10-16T01:32:49.857Z,13.25
2018-10-16T01:37:52.265Z,13.05
2018-10-16T01:42:54.678Z,12.97
2018-10-16T01:47:56.985Z,12.94
2018-10-16T01:52:59.307Z,12.93
2018-10-16T01:58:01.649Z,12.93
2018-10-16T02:03:04.103Z,12.83
2018-10-16T02:08:07.424Z,12.66
2018-10-16T02:13:09.757Z,12.46
2018-10-16T02:18:12.102Z,12.41
2018-10-16T02:23:14.443Z,12.34
2018-10-16T02:28:16.783Z,12.31
2018-10-16T02:33:19.085Z,12.26
2018-10-16T02:38:21.457Z,12.27
2018-10-16T02:43:23.835Z,12.19
2018-10-16T02:48:26.144Z,12.16
2018-10-16T02:53:28.468Z,12.16
2018-10-16T02:58:30.824Z,12.12
2018-10-16T03:03:34.919Z,12.07
2018-10-16T03:08:37.823Z,11.96
2018-10-16T03:13:40.188Z,11.91
2018-10-16T03:18:42.489Z,11.98
2018-10-16T03:23:44.832Z,11.91
2018-10-16T03:28:47.169Z,11.87
2018-10-16T03:33:49.478Z,11.80
2018-10-16T03:38:51.832Z,11.75
2018-10-16T03:43:59.349Z,11.77
2018-10-16T03:49:01.694Z,11.70
2018-10-16T03:54:04.399Z,11.65
2018-10-16T03:59:06.688Z,11.63
2018-10-16T04:04:09.013Z,11.57
2018-10-16T04:09:11.309Z,11.54
2018-10-16T04:14:13.630Z,11.43
2018-10-16T04:19:15.905Z,11.37
2018-10-16T04:24:18.184Z,11.33
2018-10-16T04:29:20.496Z,11.33
2018-10-16T04:34:22.774Z,11.30
2018-10-16T04:39:25.024Z,11.21
2018-10-16T04:44:27.321Z,11.16
2018-10-16T04:49:29.572Z,11.10
2018-10-16T04:54:31.818Z,11.10
2018-10-16T04:59:34.074Z,11.06
2018-10-16T05:04:36.329Z,11.01
2018-10-16T05:09:38.697Z,10.95
2018-10-16T05:14:41.028Z,10.92
2018-10-16T05:19:43.269Z,10.91
2018-10-16T05:24:45.558Z,10.89
2018-10-16T05:29:47.841Z,10.87
2018-10-16T05:34:50.130Z,10.80
2018-10-16T05:39:52.414Z,10.79
2018-10-16T05:44:54.731Z,10.70
2018-10-16T05:49:57.021Z,10.62
2018-10-16T05:55:00.812Z,10.64
2018-10-16T06:00:15.805Z,10.65
2018-10-16T06:05:18.103Z,10.67
2018-10-16T06:10:20.435Z,10.75
2018-10-16T06:15:22.743Z,10.85
2018-10-16T06:20:25.159Z,10.94
2018-10-16T06:25:27.448Z,11.01
2018-10-16T06:30:29.723Z,11.11
2018-10-16T06:35:32.239Z,11.22
2018-10-16T06:40:34.555Z,11.32
2018-10-16T06:45:36.863Z,11.46
2018-10-16T06:50:39.123Z,11.60
2018-10-16T06:55:41.372Z,11.77
2018-10-16T07:00:43.620Z,11.96
2018-10-16T07:05:45.891Z,12.20
2018-10-16T07:10:48.161Z,12.43
2018-10-16T07:15:50.485Z,12.63
2018-10-16T07:20:52.755Z,12.81
2018-10-16T07:25:55.062Z,12.93
2018-10-16T07:30:57.348Z,12.93
2018-10-16T07:35:59.702Z,12.97
2018-10-16T07:41:01.999Z,13.10
2018-10-16T07:46:04.569Z,13.06
2018-10-16T07:51:06.847Z,13.25
2018-10-16T07:56:09.233Z,13.42
2018-10-16T08:01:11.520Z,13.65
2018-10-16T08:06:13.812Z,13.84
2018-10-16T08:11:16.124Z,13.96
2018-10-16T08:16:18.512Z,14.06
2018-10-16T08:21:20.765Z,14.22
2018-10-16T08:26:23.024Z,14.44
2018-10-16T08:31:25.410Z,14.66
2018-10-16T08:36:27.746Z,14.76
2018-10-16T08:41:34.758Z,14.82
2018-10-16T08:46:48.638Z,15.07
2018-10-16T08:51:53.317Z,15.10
2018-10-16T08:56:55.594Z,15.20
2018-10-16T09:01:57.961Z,15.26
2018-10-16T09:07:00.360Z,15.26
2018-10-16T09:12:02.661Z,15.34
2018-10-16T09:17:05.119Z,15.35
2018-10-16T09:22:07.445Z,15.39
2018-10-16T09:27:09.811Z,15.48
2018-10-16T09:32:12.081Z,15.53
2018-10-16T09:37:14.422Z,15.51
2018-10-16T09:42:16.695Z,15.49
2018-10-16T09:47:19.013Z,15.46
2018-10-16T09:52:21.286Z,15.58
2018-10-16T09:57:23.650Z,15.66
2018-10-16T10:02:25.947Z,15.73
2018-10-16T10:07:28.332Z,15.84
2018-10-16T10:12:30.596Z,16.00
2018-10-16T10:17:32.962Z,16.07
2018-10-16T10:22:35.285Z,16.23
2018-10-16T10:27:37.566Z,16.37
2018-10-16T10:32:40.064Z,16.46
2018-10-16T10:37:42.449Z,16.64
2018-10-16T10:42:44.803Z,16.70
2018-10-16T10:47:47.125Z,16.92
2018-10-16T10:52:49.413Z,17.11
2018-10-16T10:57:51.687Z,17.19
2018-10-16T11:02:54.078Z,17.08
2018-10-16T11:07:56.321Z,17.22
2018-10-16T11:12:58.613Z,17.39
2018-10-16T11:18:00.925Z,17.54
2018-10-16T11:23:03.358Z,17.58
2018-10-16T11:28:05.825Z,17.72
2018-10-16T11:33:08.182Z,17.73
2018-10-16T11:38:10.418Z,17.75
2018-10-16T11:43:12.775Z,17.77
2018-10-16T11:48:15.194Z,17.83
2018-10-16T11:53:17.567Z,17.87
2018-10-16T11:58:19.842Z,17.73
2018-10-16T12:03:22.146Z,17.62
2018-10-16T12:08:24.429Z,17.64
2018-10-16T12:13:26.726Z,17.69
2018-10-16T12:19:33.616Z,17.71
2018-10-16T12:24:35.970Z,17.76
2018-10-16T12:29:38.228Z,17.97
2018-10-16T12:34:40.647Z,18.28
2018-10-16T12:39:43.044Z,18.40
2018-10-16T12:44:45.253Z,18.64
2018-10-16T12:49:47.539Z,18.97
2018-10-16T12:54:49.800Z,19.01
2018-10-16T12:59:52.274Z,19.00
2018-10-16T13:04:54.530Z,19.03
2018-10-16T13:09:56.784Z,19.08
2018-10-16T13:14:59.289Z,19.13
2018-10-16T13:20:01.619Z,18.85
2018-10-16T13:25:04.468Z,18.82
2018-10-16T13:30:08.868Z,18.65
2018-10-16T13:35:13.096Z,18.62
2018-10-16T13:40:15.388Z,18.55
2018-10-16T13:45:17.699Z,17.97
2018-10-16T13:50:19.987Z,17.50
2018-10-16T13:55:22.245Z,17.06
2018-10-16T14:00:24.529Z,16.97
2018-10-16T14:05:26.824Z,16.93
2018-10-16T14:10:29.072Z,17.01
2018-10-16T14:15:31.324Z,16.92
2018-10-16T14:20:33.822Z,16.83
2018-10-16T14:25:36.120Z,16.84
2018-10-16T14:30:38.403Z,16.98
2018-10-16T14:35:40.681Z,17.07
2018-10-16T14:40:43.011Z,17.14
2018-10-16T14:45:45.386Z,17.20
2018-10-16T14:50:47.817Z,17.26
2018-10-16T14:55:50.093Z,17.32
2018-10-16T15:00:52.435Z,17.36
2018-10-16T15:05:54.809Z,17.31
2018-10-16T15:10:57.877Z,17.24
2018-10-16T15:16:00.244Z,17.27
2018-10-16T15:21:02.636Z,17.21
2018-10-16T15:26:05.528Z,17.16
2018-10-16T15:31:07.797Z,17.07
2018-10-16T15:36:10.184Z,17.01
2018-10-16T15:41:12.606Z,16.92
2018-10-16T15:46:14.907Z,16.70
2018-10-16T15:51:17.194Z,16.71
2018-10-16T15:56:19.534Z,16.60
2018-10-16T16:01:21.904Z,16.46
2018-10-16T16:06:24.197Z,16.39
2018-10-16T16:11:26.728Z,16.24
2018-10-16T16:16:28.996Z,16.09
2018-10-16T16:21:31.681Z,16.00
2018-10-16T16:26:33.975Z,15.93
2018-10-16T16:31:36.391Z,15.87
2018-10-16T16:36:38.685Z,15.78
2018-10-16T16:41:41.222Z,15.71
2018-10-16T16:46:43.501Z,15.65
2018-10-16T16:51:45.849Z,15.60
2018-10-16T16:56:48.152Z,15.57
2018-10-16T17:01:51.067Z,15.54
2018-10-16T17:06:53.917Z,15.43
2018-10-16T17:11:56.588Z,15.29
2018-10-16T17:16:59.649Z,14.89
2018-10-16T17:22:01.990Z,14.86
2018-10-16T17:27:04.425Z,14.84
2018-10-16T17:32:06.700Z,14.82
2018-10-16T17:37:09.046Z,14.78
2018-10-16T17:42:11.333Z,14.66
2018-10-16T17:47:15.571Z,14.57
2018-10-16T17:52:17.936Z,14.56
2018-10-16T17:57:21.739Z,14.52
2018-10-16T18:02:24.100Z,14.44
2018-10-16T18:07:27.838Z,14.39
2018-10-16T18:12:30.230Z,14.40
2018-10-16T18:17:32.537Z,14.44
2018-10-16T18:22:34.882Z,14.41
2018-10-16T18:27:37.337Z,14.42
2018-10-16T18:32:39.925Z,14.39
2018-10-16T18:37:43.005Z,14.36
2018-10-16T18:42:45.285Z,14.34
2018-10-16T18:47:47.693Z,14.21
2018-10-16T18:52:50.110Z,13.89
2018-10-16T18:57:52.474Z,13.63
2018-10-16T19:02:54.809Z,13.52
2018-10-16T19:07:57.082Z,13.55
2018-10-16T19:13:02.527Z,13.55
2018-10-16T19:18:04.861Z,13.52
2018-10-16T19:23:07.178Z,13.46
2018-10-16T19:28:09.472Z,13.50
2018-10-16T19:33:11.919Z,13.50
2018-10-16T19:38:14.059Z,13.56
2018-10-16T19:43:16.309Z,13.62
2018-10-16T19:48:18.729Z,13.54
2018-10-16T19:53:21.092Z,13.38
2018-10-16T19:58:23.374Z,13.26
2018-10-16T20:03:25.705Z,13.36
2018-10-16T20:08:28.590Z,13.23
2018-10-16T20:13:30.899Z,13.19
2018-10-16T20:18:33.239Z,12.95
2018-10-16T20:23:35.573Z,12.87
2018-10-16T20:28:37.995Z,12.81
2018-10-16T20:33:40.245Z,12.68
2018-10-16T20:38:42.610Z,12.60
2018-10-16T20:43:44.860Z,12.51
2018-10-16T20:48:47.107Z,12.45
2018-10-16T20:53:49.449Z,12.41
2018-10-16T20:58:52.102Z,12.17
2018-10-16T21:03:54.406Z,12.12
2018-10-16T21:08:56.661Z,12.06
2018-10-16T21:13:58.921Z,12.00
2018-10-16T21:19:01.212Z,12.01
2018-10-16T21:24:03.825Z,11.97
2018-10-16T21:29:06.171Z,11.93
2018-10-16T21:34:08.400Z,11.94
2018-10-16T21:39:11.102Z,11.98
2018-10-16T21:44:13.421Z,11.88
2018-10-16T21:49:15.736Z,11.83
2018-10-16T21:54:18.256Z,11.83
2018-10-16T21:59:20.553Z,11.89
2018-10-16T22:04:22.808Z,11.94
2018-10-16T22:09:25.074Z,11.93
2018-10-16T22:14:27.332Z,11.85
2018-10-16T22:19:29.594Z,11.81
2018-10-16T22:24:31.964Z,11.74
2018-10-16T22:29:34.308Z,11.66
2018-10-16T22:34:36.481Z,11.64
2018-10-16T22:39:38.749Z,11.59
2018-10-16T22:44:41.133Z,11.54
2018-10-16T22:49:43.356Z,11.47
2018-10-16T22:54:45.813Z,11.39
2018-10-16T22:59:48.060Z,11.32
2018-10-16T23:04:50.304Z,11.25
2018-10-16T23:09:52.550Z,11.13
2018-10-16T23:14:54.798Z,11.01
2018-10-16T23:19:57.047Z,10.98
2018-10-16T23:24:59.654Z,10.93
2018-10-16T23:30:02.112Z,10.85
2018-10-16T23:35:04.851Z,10.81
2018-10-16T23:40:07.144Z,10.77
2018-10-16T23:45:09.424Z,10.70
2018-10-16T23:50:11.748Z,10.69
2018-10-16T23:55:14.106Z,10.64
